Time;durP1;ratioP1;P1;durP2;ratioP2;P2;SDS_P1;SDS_P2;PMS_P1;PMS_P2;Temp;Humidity;BMP_temperature;BMP_pressure;BME280_temperature;BME280_humidity;BME280_pressure;Samples;Min_cycle;Max_cycle;Signal;HPM_P1;HPM_P2
2023/03/23 00:00:45;;;;;;;6.18;1.85;;;12.10;56.10;;;;;;5070147;28;20032;-64
2023/03/23 00:03:11;;;;;;;10.32;1.98;;;12.10;56.20;;;;;;5064406;28;20029;-63
2023/03/23 00:05:41;;;;;;;4.65;2.10;;;12.10;56.20;;;;;;5066525;28;20149;-65
2023/03/23 00:08:08;;;;;;;5.75;2.10;;;12.10;56.40;;;;;;5062852;28;20096;-65
2023/03/23 00:10:35;;;;;;;4.03;1.98;;;12.10;56.40;;;;;;5066166;28;20088;-62
2023/03/23 00:13:04;;;;;;;3.33;1.90;;;12.10;56.50;;;;;;5058028;28;20254;-64
2023/03/23 00:15:33;;;;;;;6.63;2.28;;;12.10;56.50;;;;;;5063082;28;20112;-64
2023/03/23 00:18:02;;;;;;;4.70;2.22;;;12.10;56.60;;;;;;5064977;28;20039;-63
2023/03/23 00:20:29;;;;;;;3.15;1.90;;;12.10;56.70;;;;;;5059261;28;20048;-63
2023/03/23 00:22:59;;;;;;;10.65;2.60;;;12.10;56.80;;;;;;5070959;28;20031;-63
2023/03/23 00:25:25;;;;;;;5.57;2.05;;;12.00;56.70;;;;;;5053819;28;20035;-64
2023/03/23 00:27:51;;;;;;;2.60;1.77;;;12.10;56.70;;;;;;5059706;28;20033;-63
2023/03/23 00:30:17;;;;;;;8.07;1.90;;;12.00;56.80;;;;;;5063779;28;20088;-63
2023/03/23 00:32:43;;;;;;;4.85;1.90;;;12.10;57.00;;;;;;5055789;28;20025;-65
2023/03/23 00:35:09;;;;;;;5.55;1.90;;;12.00;57.00;;;;;;5053484;28;20068;-64
2023/03/23 00:37:35;;;;;;;4.82;1.92;;;12.00;57.10;;;;;;5052767;28;20107;-63
2023/03/23 00:40:06;;;;;;;3.65;1.80;;;12.10;57.20;;;;;;5057836;28;20083;-64
2023/03/23 00:42:36;;;;;;;3.97;1.90;;;12.00;57.20;;;;;;5062110;28;20062;-63
2023/03/23 00:45:06;;;;;;;4.90;2.30;;;12.00;57.20;;;;;;5065609;28;20020;-63
2023/03/23 00:47:35;;;;;;;10.25;1.90;;;12.10;57.30;;;;;;5054057;28;20048;-63
2023/03/23 00:50:02;;;;;;;4.00;1.92;;;12.10;57.40;;;;;;5063337;28;20043;-64
2023/03/23 00:52:28;;;;;;;4.65;1.90;;;12.00;57.30;;;;;;5059294;28;20020;-64
2023/03/23 00:54:54;;;;;;;2.88;2.30;;;12.00;57.90;;;;;;5055769;28;20036;-64
2023/03/23 00:57:19;;;;;;;2.25;2.00;;;12.10;57.30;;;;;;5051317;28;20026;-64
2023/03/23 00:59:45;;;;;;;10.15;2.00;;;12.10;57.30;;;;;;5062286;28;20039;-63
2023/03/23 01:02:11;;;;;;;3.63;2.05;;;12.10;57.50;;;;;;5060240;28;20025;-64
2023/03/23 01:04:39;;;;;;;5.57;1.90;;;12.10;57.50;;;;;;5060602;28;20028;-64
2023/03/23 01:07:04;;;;;;;4.05;2.00;;;12.10;57.60;;;;;;5053490;28;20017;-64
2023/03/23 01:09:30;;;;;;;8.95;2.30;;;12.00;57.40;;;;;;5068917;28;20028;-64
2023/03/23 01:11:56;;;;;;;2.65;2.00;;;12.00;57.20;;;;;;5059871;28;20029;-63
2023/03/23 01:14:22;;;;;;;3.90;2.28;;;12.00;57.40;;;;;;5063301;28;20060;-64
2023/03/23 01:16:47;;;;;;;3.10;2.20;;;12.00;57.60;;;;;;5061010;28;20060;-64
2023/03/23 01:19:15;;;;;;;3.60;2.35;;;12.00;57.60;;;;;;5059616;28;20033;-64
2023/03/23 01:21:40;;;;;;;10.10;2.58;;;12.00;57.50;;;;;;5055243;28;20029;-64
2023/03/23 01:24:07;;;;;;;5.78;2.08;;;12.00;57.60;;;;;;5058044;28;20075;-64
2023/03/23 01:26:32;;;;;;;5.28;2.05;;;12.00;57.60;;;;;;5056571;28;20029;-64
2023/03/23 01:28:58;;;;;;;3.92;2.22;;;12.00;57.60;;;;;;5055202;28;20039;-64
2023/03/23 01:31:26;;;;;;;4.55;2.10;;;12.00;57.70;;;;;;5055115;28;20029;-64
2023/03/23 01:33:52;;;;;;;3.03;2.10;;;12.00;57.70;;;;;;5053798;28;20029;-64
2023/03/23 01:36:20;;;;;;;3.70;2.40;;;12.00;57.50;;;;;;5054834;28;20024;-64
2023/03/23 01:38:48;;;;;;;2.28;1.73;;;12.00;57.70;;;;;;5053247;28;20071;-64
2023/03/23 01:41:14;;;;;;;7.20;2.25;;;12.00;57.70;;;;;;5060537;28;20031;-64
2023/03/23 01:44:16;;;;;;;2.72;1.98;;;12.00;57.70;;;;;;5056878;28;20030;-64
2023/03/23 01:46:43;;;;;;;3.38;2.40;;;12.00;58.40;;;;;;5059782;28;20437;-62
2023/03/23 01:49:15;;;;;;;3.42;2.40;;;12.00;57.50;;;;;;5061981;28;20108;-63
2023/03/23 01:51:51;;;;;;;4.18;2.42;;;12.00;58.00;;;;;;5054609;28;20052;-63
2023/03/23 01:54:20;;;;;;;5.10;2.63;;;12.00;58.10;;;;;;5054354;28;20021;-63
2023/03/23 01:56:53;;;;;;;2.83;2.20;;;12.00;58.10;;;;;;5067866;28;20071;-63
2023/03/23 01:59:21;;;;;;;4.38;2.50;;;12.10;58.40;;;;;;5067385;28;20021;-65
2023/03/23 02:01:47;;;;;;;5.90;2.50;;;12.10;58.10;;;;;;5060471;28;20029;-64
2023/03/23 02:04:15;;;;;;;6.70;2.55;;;12.10;58.10;;;;;;5051682;28;20032;-63
2023/03/23 02:06:44;;;;;;;6.80;3.10;;;12.10;58.30;;;;;;5088207;28;20059;-63
2023/03/23 02:09:11;;;;;;;6.32;3.00;;;12.10;58.30;;;;;;5072636;28;20041;-63
2023/03/23 02:11:37;;;;;;;7.35;3.03;;;12.10;58.40;;;;;;5062482;28;20024;-65
2023/03/23 02:14:03;;;;;;;6.72;3.03;;;12.30;58.50;;;;;;5059007;28;20052;-65
2023/03/23 02:16:46;;;;;;;5.90;3.00;;;12.10;58.60;;;;;;5064608;28;20040;-65
2023/03/23 02:19:33;;;;;;;5.97;3.10;;;12.10;59.80;;;;;;5059018;28;20029;-67
2023/03/23 02:22:35;;;;;;;4.07;3.20;;;12.10;59.60;;;;;;5056150;28;20144;-63
2023/03/23 02:25:16;;;;;;;5.82;3.17;;;12.20;60.00;;;;;;5058499;28;20360;-65
2023/03/23 02:28:14;;;;;;;6.72;3.22;;;12.20;59.30;;;;;;5060046;28;20029;-65
2023/03/23 02:31:03;;;;;;;6.65;3.33;;;12.20;59.50;;;;;;5058892;28;20049;-65
2023/03/23 02:33:59;;;;;;;4.90;3.42;;;12.20;60.20;;;;;;5058893;28;20119;-65
2023/03/23 02:36:43;;;;;;;11.55;3.10;;;12.20;59.80;;;;;;5062181;28;20064;-64
2023/03/23 02:39:10;;;;;;;5.88;3.63;;;12.20;59.60;;;;;;5055988;28;20029;-64
2023/03/23 02:41:58;;;;;;;6.20;3.72;;;12.20;59.00;;;;;;5054369;28;20032;-62
2023/03/23 02:44:29;;;;;;;5.78;2.92;;;12.20;60.40;;;;;;5050183;28;20079;-63
2023/03/23 02:46:58;;;;;;;5.25;2.83;;;12.20;59.40;;;;;;5070399;28;20033;-63
2023/03/23 02:49:26;;;;;;;3.13;2.50;;;12.20;59.50;;;;;;5063356;28;20039;-63
2023/03/23 02:51:56;;;;;;;3.30;2.55;;;12.20;59.50;;;;;;5062325;28;20024;-64
2023/03/23 02:54:25;;;;;;;7.82;2.55;;;12.20;59.70;;;;;;5063049;28;20043;-64
2023/03/23 02:56:53;;;;;;;6.20;2.40;;;12.20;59.70;;;;;;5061708;28;20033;-64
2023/03/23 02:59:19;;;;;;;4.97;2.53;;;12.20;59.70;;;;;;5061969;28;20039;-64
2023/03/23 03:02:06;;;;;;;5.07;2.60;;;12.20;59.60;;;;;;5056191;28;20041;-64
2023/03/23 03:04:33;;;;;;;4.45;2.17;;;12.20;59.80;;;;;;5062928;28;20025;-64
2023/03/23 03:07:11;;;;;;;4.72;2.40;;;12.20;59.50;;;;;;5055500;28;20088;-64
2023/03/23 03:09:58;;;;;;;8.73;2.30;;;12.20;60.20;;;;;;5063773;28;20532;-64
2023/03/23 03:12:34;;;;;;;5.60;2.58;;;12.20;60.80;;;;;;5052382;28;20025;-64
2023/03/23 03:15:25;;;;;;;5.60;2.22;;;12.20;60.30;;;;;;5060375;28;20035;-65
2023/03/23 03:18:02;;;;;;;5.70;2.70;;;12.20;61.00;;;;;;5058845;28;20032;-64
2023/03/23 03:20:30;;;;;;;6.30;2.60;;;12.20;60.60;;;;;;5061533;28;20032;-64
2023/03/23 03:22:57;;;;;;;5.50;2.90;;;12.20;60.20;;;;;;5057349;28;20026;-64
2023/03/23 03:25:25;;;;;;;5.63;2.30;;;12.20;60.30;;;;;;5059878;28;20074;-64
2023/03/23 03:27:52;;;;;;;4.65;2.50;;;12.20;61.00;;;;;;5048550;28;20043;-64
2023/03/23 03:30:21;;;;;;;15.90;2.75;;;12.30;60.50;;;;;;5049839;28;20759;-64
2023/03/23 03:32:53;;;;;;;5.90;2.70;;;12.30;60.90;;;;;;5061943;28;20496;-65
2023/03/23 03:35:21;;;;;;;5.93;3.10;;;12.30;60.50;;;;;;5054878;28;21073;-64
2023/03/23 03:37:47;;;;;;;5.82;3.65;;;12.30;60.20;;;;;;5056061;28;20035;-64
2023/03/23 03:40:15;;;;;;;4.45;3.10;;;12.30;60.30;;;;;;4980509;28;20044;-65
2023/03/23 03:42:43;;;;;;;5.50;3.42;;;12.20;60.60;;;;;;5055214;28;20033;-64
2023/03/23 03:45:11;;;;;;;6.05;3.20;;;12.20;60.40;;;;;;5057243;28;20380;-64
2023/03/23 03:47:37;;;;;;;5.85;3.63;;;12.20;60.50;;;;;;5062229;28;20089;-64
2023/03/23 03:50:03;;;;;;;6.95;3.97;;;12.30;60.50;;;;;;5060490;28;20112;-63
2023/03/23 03:52:28;;;;;;;5.45;3.83;;;12.20;60.30;;;;;;5068306;28;20028;-64
2023/03/23 03:54:55;;;;;;;6.07;3.63;;;12.30;60.20;;;;;;5065643;28;20047;-64
2023/03/23 03:57:21;;;;;;;5.15;3.67;;;12.20;60.10;;;;;;5056817;28;20139;-62
2023/03/23 03:59:47;;;;;;;5.60;3.60;;;12.30;60.30;;;;;;5066487;28;20523;-64
2023/03/23 04:02:19;;;;;;;6.00;3.97;;;12.20;60.40;;;;;;5071668;28;20028;-64
2023/03/23 04:04:46;;;;;;;12.05;4.63;;;12.20;60.40;;;;;;5066004;28;20047;-64
2023/03/23 04:07:13;;;;;;;8.40;3.70;;;12.30;60.20;;;;;;5061771;28;20020;-64
2023/03/23 04:09:40;;;;;;;4.85;3.60;;;12.30;60.00;;;;;;5068099;28;20495;-63
2023/03/23 04:12:06;;;;;;;5.10;3.83;;;12.30;60.00;;;;;;5067571;28;20349;-64
2023/03/23 04:14:32;;;;;;;6.07;4.18;;;12.30;59.90;;;;;;5064267;28;20021;-64
2023/03/23 04:16:58;;;;;;;5.50;3.97;;;12.30;59.90;;;;;;5066633;28;20028;-65
2023/03/23 04:19:24;;;;;;;5.15;3.83;;;12.30;59.90;;;;;;5065146;28;20074;-64
2023/03/23 04:21:50;;;;;;;5.85;4.03;;;12.30;59.90;;;;;;5061793;28;20029;-64
2023/03/23 04:24:16;;;;;;;4.93;3.58;;;12.40;59.90;;;;;;5061491;28;20079;-64
2023/03/23 04:26:42;;;;;;;10.68;4.13;;;12.40;60.20;;;;;;5063110;28;20016;-64
2023/03/23 04:29:08;;;;;;;8.18;3.63;;;12.40;59.90;;;;;;5055109;28;20079;-65
2023/03/23 04:31:34;;;;;;;5.60;3.63;;;12.40;59.90;;;;;;5045780;28;20108;-64
2023/03/23 04:34:01;;;;;;;5.75;3.85;;;12.40;59.90;;;;;;5057128;28;20044;-63
2023/03/23 04:36:33;;;;;;;5.28;3.80;;;12.50;60.60;;;;;;5056384;28;20089;-64
2023/03/23 04:39:00;;;;;;;7.50;4.30;;;12.50;59.80;;;;;;4984214;28;20036;-63
2023/03/23 04:41:26;;;;;;;6.30;3.75;;;12.50;59.90;;;;;;5054002;28;20048;-64
2023/03/23 04:43:53;;;;;;;4.60;3.70;;;12.60;60.00;;;;;;5060052;28;20040;-64
2023/03/23 04:46:21;;;;;;;7.03;4.47;;;12.50;59.90;;;;;;5058445;28;20040;-63
2023/03/23 04:48:47;;;;;;;7.47;3.80;;;12.60;60.10;;;;;;5053141;28;20413;-64
2023/03/23 04:51:12;;;;;;;4.90;3.72;;;12.60;60.00;;;;;;5051605;28;20029;-65
2023/03/23 04:53:38;;;;;;;8.15;3.83;;;12.60;60.00;;;;;;5055165;28;20018;-63
2023/03/23 04:56:04;;;;;;;7.63;4.20;;;12.60;60.00;;;;;;5056269;28;20033;-63
2023/03/23 04:58:33;;;;;;;6.07;3.85;;;12.60;60.00;;;;;;5061519;28;20025;-63
2023/03/23 05:01:00;;;;;;;10.48;4.50;;;12.60;59.90;;;;;;5064842;28;20025;-63
2023/03/23 05:03:27;;;;;;;6.35;3.83;;;12.60;59.90;;;;;;5058426;28;20025;-63
2023/03/23 05:05:53;;;;;;;6.43;3.47;;;12.60;59.90;;;;;;5055031;28;20025;-62
2023/03/23 05:08:24;;;;;;;8.93;4.03;;;12.60;59.90;;;;;;5057820;28;20029;-63
2023/03/23 05:10:52;;;;;;;8.90;4.20;;;12.60;60.00;;;;;;5057156;28;20026;-62
2023/03/23 05:13:17;;;;;;;9.13;3.88;;;12.70;59.90;;;;;;5067044;28;20027;-64
2023/03/23 05:15:43;;;;;;;6.60;3.88;;;12.70;59.90;;;;;;5058767;28;20029;-64
2023/03/23 05:18:09;;;;;;;6.20;3.95;;;12.70;60.60;;;;;;5056670;28;20025;-64
2023/03/23 05:20:35;;;;;;;8.05;4.22;;;12.70;60.00;;;;;;5049931;28;20093;-63
2023/03/23 05:23:01;;;;;;;5.93;3.65;;;12.70;60.00;;;;;;5067220;28;20060;-63
2023/03/23 05:25:27;;;;;;;6.85;3.90;;;12.70;60.00;;;;;;5055243;28;20025;-63
2023/03/23 05:27:53;;;;;;;8.57;3.97;;;12.70;60.10;;;;;;5065339;28;20032;-64
2023/03/23 05:30:21;;;;;;;6.82;4.63;;;12.70;60.10;;;;;;5067127;28;20028;-63
2023/03/23 05:32:50;;;;;;;6.68;4.50;;;12.70;60.20;;;;;;5060379;28;20468;-63
2023/03/23 05:35:17;;;;;;;8.85;5.53;;;12.70;60.20;;;;;;5061751;28;20052;-63
2023/03/23 05:37:43;;;;;;;10.98;6.88;;;12.70;60.10;;;;;;5055370;28;20036;-63
2023/03/23 05:40:11;;;;;;;12.95;7.35;;;12.80;60.20;;;;;;5057665;28;20503;-63
2023/03/23 05:42:40;;;;;;;9.57;6.45;;;12.80;60.20;;;;;;5052710;28;20065;-64
2023/03/23 05:45:08;;;;;;;14.05;7.22;;;12.80;60.10;;;;;;5050122;28;20508;-63
2023/03/23 05:47:34;;;;;;;12.27;7.20;;;12.80;60.00;;;;;;5060340;28;20024;-63
2023/03/23 05:50:00;;;;;;;12.50;6.35;;;12.80;60.20;;;;;;5070448;28;20044;-64
2023/03/23 05:52:26;;;;;;;12.90;6.82;;;12.80;60.30;;;;;;5055434;28;20098;-64
2023/03/23 05:54:52;;;;;;;11.85;6.00;;;12.80;60.30;;;;;;5056509;28;20029;-63
2023/03/23 05:57:21;;;;;;;11.07;5.90;;;12.90;60.30;;;;;;5089848;28;20039;-64
2023/03/23 05:59:47;;;;;;;14.20;5.68;;;12.90;60.20;;;;;;5062834;28;20032;-63
2023/03/23 06:02:14;;;;;;;19.23;6.45;;;12.90;60.10;;;;;;5067074;28;20036;-63
2023/03/23 06:04:40;;;;;;;13.75;6.00;;;12.90;60.10;;;;;;5060115;28;20066;-65
2023/03/23 06:07:07;;;;;;;11.95;5.55;;;12.90;60.10;;;;;;5058321;28;20033;-64
2023/03/23 06:09:33;;;;;;;10.80;5.32;;;12.90;60.20;;;;;;5067673;28;20041;-64
2023/03/23 06:11:58;;;;;;;8.90;4.95;;;12.90;60.10;;;;;;5068967;28;20029;-63
2023/03/23 06:14:24;;;;;;;8.38;5.25;;;13.00;60.20;;;;;;5073377;28;20102;-64
2023/03/23 06:16:50;;;;;;;9.52;4.60;;;13.00;60.30;;;;;;5064613;28;20024;-63
2023/03/23 06:19:16;;;;;;;8.93;4.38;;;13.00;60.20;;;;;;5065778;28;20028;-63
2023/03/23 06:21:42;;;;;;;7.10;4.30;;;13.00;60.10;;;;;;5058461;28;20125;-63
2023/03/23 06:24:08;;;;;;;7.10;4.13;;;13.00;59.90;;;;;;5054252;28;20049;-64
2023/03/23 06:26:36;;;;;;;6.57;4.03;;;13.10;59.80;;;;;;5066099;28;20029;-64
2023/03/23 06:29:10;;;;;;;5.85;4.00;;;13.10;59.70;;;;;;5062080;28;20037;-64
2023/03/23 06:31:41;;;;;;;10.90;3.63;;;13.20;59.60;;;;;;5063062;28;20048;-63
2023/03/23 06:34:11;;;;;;;6.90;3.78;;;13.20;59.60;;;;;;5065342;28;20465;-63
2023/03/23 06:36:38;;;;;;;6.07;4.22;;;13.20;59.60;;;;;;5064401;28;20101;-64
2023/03/23 06:39:04;;;;;;;7.88;3.38;;;13.30;59.60;;;;;;5060382;28;20021;-63
2023/03/23 06:41:33;;;;;;;7.30;3.70;;;13.30;59.30;;;;;;5059377;28;20049;-63
2023/03/23 06:44:00;;;;;;;13.05;3.40;;;13.30;59.20;;;;;;5064168;28;20219;-64
2023/03/23 06:46:27;;;;;;;5.60;3.17;;;13.40;59.10;;;;;;5068078;28;20044;-63
2023/03/23 06:48:53;;;;;;;6.45;3.30;;;13.40;59.00;;;;;;5068287;28;20071;-64
2023/03/23 06:51:18;;;;;;;4.57;3.08;;;13.50;59.00;;;;;;5063878;28;20036;-64
2023/03/23 06:53:44;;;;;;;5.40;3.38;;;13.60;58.90;;;;;;5063689;28;20024;-63
2023/03/23 06:56:12;;;;;;;4.05;2.88;;;13.60;58.80;;;;;;5060014;28;20408;-63
2023/03/23 06:58:37;;;;;;;4.38;2.70;;;13.70;58.80;;;;;;5063763;28;20021;-63
2023/03/23 07:01:04;;;;;;;7.60;3.50;;;13.80;58.60;;;;;;5057776;28;20032;-63
2023/03/23 07:03:30;;;;;;;7.18;3.10;;;13.80;58.50;;;;;;5063831;28;20024;-63
2023/03/23 07:05:56;;;;;;;8.70;2.97;;;13.90;58.40;;;;;;5068624;28;20107;-63
2023/03/23 07:08:22;;;;;;;5.38;2.95;;;14.00;58.30;;;;;;5060285;28;20098;-63
2023/03/23 07:10:52;;;;;;;7.32;3.47;;;14.10;58.20;;;;;;5066877;28;20446;-61
2023/03/23 07:13:18;;;;;;;7.38;3.47;;;14.20;58.10;;;;;;5059433;28;20028;-62
2023/03/23 07:15:45;;;;;;;4.28;2.92;;;14.20;58.00;;;;;;5058447;28;20021;-62
2023/03/23 07:18:10;;;;;;;9.57;3.15;;;14.30;57.90;;;;;;5058173;28;20101;-62
2023/03/23 07:20:37;;;;;;;9.00;2.65;;;14.40;57.80;;;;;;5066622;28;20025;-62
2023/03/23 07:23:05;;;;;;;4.82;2.42;;;14.50;57.70;;;;;;5066365;28;20409;-63
2023/03/23 07:25:32;;;;;;;3.78;2.47;;;14.60;57.60;;;;;;5065310;28;20021;-63
2023/03/23 07:28:00;;;;;;;7.20;2.80;;;14.70;57.50;;;;;;5056108;28;20047;-63
2023/03/23 07:30:26;;;;;;;3.20;2.63;;;14.70;57.30;;;;;;5066703;28;20032;-62
2023/03/23 07:32:52;;;;;;;4.10;2.80;;;14.80;57.20;;;;;;5055365;28;20059;-63
2023/03/23 07:35:17;;;;;;;4.82;2.47;;;14.90;57.10;;;;;;5046875;28;20048;-62
2023/03/23 07:37:43;;;;;;;4.47;2.45;;;15.00;57.10;;;;;;5060365;28;20021;-63
2023/03/23 07:40:15;;;;;;;2.97;2.17;;;15.10;56.80;;;;;;5062643;28;20191;-63
2023/03/23 07:42:49;;;;;;;6.70;2.60;;;15.20;56.70;;;;;;5059441;28;20048;-63
2023/03/23 07:45:15;;;;;;;4.38;2.50;;;15.30;56.60;;;;;;5062412;28;20024;-63
2023/03/23 07:47:41;;;;;;;3.25;2.20;;;15.40;56.40;;;;;;5061035;28;20048;-63
2023/03/23 07:50:08;;;;;;;5.50;2.58;;;15.50;56.40;;;;;;5062139;28;20162;-63
2023/03/23 07:52:35;;;;;;;3.90;2.15;;;15.50;56.20;;;;;;5059512;28;20025;-63
2023/03/23 07:55:02;;;;;;;3.20;2.35;;;15.60;56.00;;;;;;5052161;28;20021;-63
2023/03/23 07:57:29;;;;;;;3.50;2.47;;;15.60;55.70;;;;;;5051356;28;20029;-63
2023/03/23 07:59:56;;;;;;;5.30;1.95;;;15.70;55.60;;;;;;5059907;28;20021;-64
2023/03/23 08:02:23;;;;;;;3.33;2.28;;;15.80;55.50;;;;;;5060721;28;20029;-63
2023/03/23 08:04:49;;;;;;;5.93;2.20;;;15.80;55.30;;;;;;5063072;28;20089;-63
2023/03/23 08:07:16;;;;;;;5.88;2.20;;;15.90;55.20;;;;;;5056011;28;20021;-62
2023/03/23 08:09:42;;;;;;;4.00;2.38;;;15.90;55.00;;;;;;5055066;28;20060;-63
2023/03/23 08:12:08;;;;;;;3.72;2.40;;;15.90;54.90;;;;;;5066936;28;20083;-62
2023/03/23 08:14:34;;;;;;;5.28;1.90;;;16.00;54.90;;;;;;5065640;28;20029;-62
2023/03/23 08:17:00;;;;;;;6.78;2.58;;;16.00;55.00;;;;;;5062771;28;20563;-62
2023/03/23 08:19:26;;;;;;;3.30;2.10;;;16.00;54.90;;;;;;5058331;28;20504;-62
2023/03/23 08:21:53;;;;;;;4.05;2.03;;;16.00;54.90;;;;;;5060766;28;20062;-64
2023/03/23 08:24:19;;;;;;;2.58;2.00;;;16.00;54.90;;;;;;5048988;28;20013;-63
2023/03/23 08:26:45;;;;;;;5.15;2.45;;;16.00;54.60;;;;;;5061560;28;20029;-63
2023/03/23 08:29:11;;;;;;;3.00;1.92;;;16.00;54.60;;;;;;5058743;28;20541;-64
2023/03/23 08:31:38;;;;;;;3.67;1.92;;;16.00;54.80;;;;;;5046975;28;20080;-63
2023/03/23 08:34:04;;;;;;;5.35;2.40;;;16.00;54.90;;;;;;5049551;28;20140;-63
2023/03/23 08:36:34;;;;;;;5.75;1.98;;;16.10;54.80;;;;;;5051826;28;20026;-64
2023/03/23 08:39:00;;;;;;;2.30;1.85;;;16.10;54.90;;;;;;5060610;28;20053;-63
2023/03/23 08:41:26;;;;;;;3.35;2.15;;;16.10;54.70;;;;;;5062515;28;20029;-64
2023/03/23 08:43:52;;;;;;;2.75;2.08;;;16.20;54.70;;;;;;5054651;28;20037;-63
2023/03/23 08:46:19;;;;;;;3.35;2.22;;;16.30;54.70;;;;;;5062822;28;20080;-63
2023/03/23 08:48:46;;;;;;;4.38;2.40;;;16.40;54.50;;;;;;5060811;28;20036;-63
2023/03/23 08:51:11;;;;;;;3.45;2.35;;;16.40;54.30;;;;;;5057757;28;20021;-63
2023/03/23 08:53:38;;;;;;;3.72;2.08;;;16.50;54.30;;;;;;5059015;28;20029;-63
2023/03/23 08:56:09;;;;;;;4.47;2.30;;;16.40;54.30;;;;;;5060560;28;20021;-63
2023/03/23 08:58:36;;;;;;;5.35;2.25;;;16.50;54.30;;;;;;5059687;28;20025;-65
2023/03/23 09:01:04;;;;;;;3.85;1.95;;;16.60;54.50;;;;;;5063702;28;20029;-63
2023/03/23 09:03:30;;;;;;;4.30;2.10;;;16.70;54.30;;;;;;5068260;28;20017;-63
2023/03/23 09:06:04;;;;;;;3.42;2.20;;;16.80;54.30;;;;;;5064617;28;20051;-64
2023/03/23 09:08:31;;;;;;;2.85;1.90;;;16.90;54.00;;;;;;5058597;28;20093;-63
2023/03/23 09:11:02;;;;;;;7.78;1.88;;;17.00;54.00;;;;;;5067481;28;20550;-64
2023/03/23 09:13:28;;;;;;;4.22;2.00;;;17.10;53.70;;;;;;5061446;28;20070;-64
2023/03/23 09:15:54;;;;;;;3.28;1.73;;;17.20;53.40;;;;;;5061337;28;20037;-63
2023/03/23 09:18:20;;;;;;;3.25;1.67;;;17.30;53.30;;;;;;5058243;28;20020;-64
2023/03/23 09:20:46;;;;;;;3.42;1.83;;;17.40;53.30;;;;;;5068243;28;20021;-64
2023/03/23 09:23:13;;;;;;;2.88;1.90;;;17.50;53.10;;;;;;5063901;28;20047;-64
2023/03/23 09:25:39;;;;;;;7.32;2.00;;;17.60;52.70;;;;;;5062184;28;20103;-63
2023/03/23 09:28:05;;;;;;;3.83;2.00;;;17.70;52.70;;;;;;5067085;28;20096;-64
2023/03/23 09:30:33;;;;;;;5.40;1.85;;;17.80;53.20;;;;;;5058857;28;20032;-63
2023/03/23 09:33:01;;;;;;;2.88;1.80;;;17.90;52.50;;;;;;5050114;28;20029;-64
2023/03/23 09:35:27;;;;;;;2.90;2.08;;;18.00;52.40;;;;;;5063426;28;20094;-63
2023/03/23 09:37:53;;;;;;;3.90;1.77;;;18.10;52.10;;;;;;5058108;28;20104;-62
2023/03/23 09:40:30;;;;;;;4.90;1.90;;;18.30;51.90;;;;;;5065204;28;20016;-63
2023/03/23 09:43:12;;;;;;;2.50;1.80;;;18.40;51.50;;;;;;5062282;28;20045;-63
2023/03/23 09:45:49;;;;;;;2.78;1.98;;;18.50;51.00;;;;;;5053774;28;20036;-65
2023/03/23 09:48:24;;;;;;;2.75;1.85;;;18.60;51.10;;;;;;5056243;28;20036;-63
2023/03/23 09:50:59;;;;;;;3.53;1.92;;;18.60;50.80;;;;;;5055694;28;20036;-63
2023/03/23 09:53:35;;;;;;;4.15;1.55;;;18.70;50.70;;;;;;5046782;28;20063;-62
2023/03/23 09:56:05;;;;;;;4.60;1.70;;;18.70;50.60;;;;;;5065526;28;20051;-63
2023/03/23 09:58:37;;;;;;;4.93;1.70;;;18.80;50.30;;;;;;5048330;28;20406;-62
2023/03/23 10:01:15;;;;;;;2.35;1.20;;;18.70;50.30;;;;;;5057601;28;20026;-64
2023/03/23 10:03:43;;;;;;;2.88;1.05;;;18.80;49.80;;;;;;5080258;28;20392;-64
2023/03/23 10:06:15;;;;;;;1.20;1.00;;;18.80;48.80;;;;;;5057759;28;20120;-63
2023/03/23 10:08:48;;;;;;;1.80;0.93;;;18.80;49.00;;;;;;5061308;28;20210;-63
2023/03/23 10:11:26;;;;;;;2.25;1.13;;;18.70;48.70;;;;;;5053477;28;20024;-64
2023/03/23 10:14:06;;;;;;;2.58;1.30;;;18.70;49.00;;;;;;5048800;28;20026;-63
2023/03/23 10:16:37;;;;;;;2.35;1.20;;;18.70;49.30;;;;;;5047170;28;20022;-64
2023/03/23 10:19:05;;;;;;;1.77;0.90;;;18.70;49.60;;;;;;5060650;28;20079;-64
2023/03/23 10:21:34;;;;;;;7.32;1.50;;;18.70;49.60;;;;;;5057855;28;20029;-62
2023/03/23 10:24:08;;;;;;;2.75;1.27;;;18.70;49.60;;;;;;5058782;28;20033;-62
2023/03/23 10:26:37;;;;;;;;;;;18.70;49.10;;;;;;5055513;28;20059;-63
2023/03/23 10:29:20;;;;;;;1.98;0.93;;;18.80;49.40;;;;;;5061100;28;19916;-63
2023/03/23 10:31:58;;;;;;;3.10;0.90;;;18.70;49.10;;;;;;5052033;28;20037;-62
2023/03/23 10:34:56;;;;;;;1.50;0.88;;;18.80;49.50;;;;;;5050759;28;20129;-64
2023/03/23 10:37:29;;;;;;;2.05;1.00;;;18.90;49.30;;;;;;5050612;28;20086;-64
2023/03/23 10:40:03;;;;;;;1.37;1.00;;;18.90;49.40;;;;;;5055157;28;20353;-62
2023/03/23 10:42:31;;;;;;;1.98;0.90;;;19.00;48.80;;;;;;5063072;28;20028;-62
2023/03/23 10:45:12;;;;;;;3.65;0.88;;;19.10;49.00;;;;;;5061220;28;20491;-64
2023/03/23 10:47:43;;;;;;;2.08;1.08;;;19.10;48.70;;;;;;5067628;28;20055;-63
2023/03/23 10:50:34;;;;;;;2.70;1.10;;;19.20;48.50;;;;;;5077646;28;20444;-64
2023/03/23 10:53:00;;;;;;;3.47;1.27;;;19.20;47.60;;;;;;5059142;28;20029;-62
2023/03/23 10:55:39;;;;;;;2.15;1.20;;;19.20;48.10;;;;;;5060937;28;20021;-64
2023/03/23 10:58:11;;;;;;;2.53;1.40;;;19.20;47.80;;;;;;5059614;28;20036;-62
2023/03/23 11:00:44;;;;;;;2.03;1.20;;;19.10;47.80;;;;;;5055610;28;20033;-63
2023/03/23 11:03:16;;;;;;;4.78;1.10;;;19.10;48.20;;;;;;5055740;28;20097;-63
2023/03/23 11:05:54;;;;;;;1.45;1.10;;;19.00;47.70;;;;;;5051265;28;20033;-62
2023/03/23 11:08:23;;;;;;;2.47;1.30;;;19.00;47.90;;;;;;5068208;28;20507;-63
2023/03/23 11:10:58;;;;;;;1.85;1.30;;;18.90;47.90;;;;;;5065863;28;20151;-62
2023/03/23 11:13:31;;;;;;;5.25;1.30;;;18.80;47.80;;;;;;5064598;28;20032;-63
2023/03/23 11:15:57;;;;;;;1.67;1.20;;;18.80;48.10;;;;;;5058935;28;20025;-62
2023/03/23 11:18:26;;;;;;;3.08;1.00;;;18.80;48.50;;;;;;5053579;28;20066;-64
2023/03/23 11:20:56;;;;;;;2.08;1.17;;;18.70;48.40;;;;;;5054941;28;20024;-63
2023/03/23 11:23:31;;;;;;;1.25;1.02;;;18.70;48.20;;;;;;5055716;28;20024;-62
2023/03/23 11:26:15;;;;;;;3.47;1.20;;;18.80;48.50;;;;;;5063148;28;20056;-63
2023/03/23 11:29:06;;;;;;;2.65;1.20;;;18.70;48.60;;;;;;5063084;28;20041;-63
2023/03/23 11:31:35;;;;;;;3.13;1.30;;;18.80;48.70;;;;;;5056468;28;20357;-64
2023/03/23 11:34:17;;;;;;;1.45;1.17;;;18.80;48.80;;;;;;5058497;28;20140;-63
2023/03/23 11:36:53;;;;;;;7.00;1.40;;;18.80;49.30;;;;;;5061602;28;20028;-64
2023/03/23 11:39:29;;;;;;;1.50;1.10;;;18.80;49.10;;;;;;4960026;28;20636;-63
2023/03/23 11:42:01;;;;;;;4.45;1.20;;;18.90;49.30;;;;;;5061430;28;20064;-63
2023/03/23 11:44:34;;;;;;;1.60;1.17;;;18.90;49.40;;;;;;5062504;28;20032;-64
2023/03/23 11:47:36;;;;;;;2.23;1.17;;;18.90;49.30;;;;;;5053625;28;20032;-63
2023/03/23 11:50:23;;;;;;;2.28;1.30;;;18.90;49.90;;;;;;5061627;28;20079;-63
2023/03/23 11:53:13;;;;;;;1.20;1.00;;;18.90;49.90;;;;;;5063120;28;20025;-63
2023/03/23 11:55:47;;;;;;;2.45;1.17;;;18.80;49.50;;;;;;5069135;28;20424;-64
2023/03/23 11:58:16;;;;;;;1.50;1.15;;;18.80;49.90;;;;;;5060745;28;20056;-63
2023/03/23 12:01:20;;;;;;;2.03;1.52;;;18.80;49.80;;;;;;5059787;28;20578;-62
2023/03/23 12:04:08;;;;;;;1.48;1.20;;;18.80;49.70;;;;;;5042889;28;20221;-64
2023/03/23 12:06:56;;;;;;;1.20;1.10;;;18.80;49.60;;;;;;5040052;28;20041;-64
2023/03/23 12:09:48;;;;;;;3.80;1.02;;;18.80;49.80;;;;;;5039599;28;20045;-63
2023/03/23 12:12:35;;;;;;;1.13;0.95;;;18.80;50.50;;;;;;5041542;28;20049;-62
2023/03/23 12:15:25;;;;;;;2.60;1.05;;;18.80;50.20;;;;;;5037358;28;20454;-64
2023/03/23 12:18:01;;;;;;;4.93;1.38;;;18.90;49.60;;;;;;5036932;28;20033;-63
2023/03/23 12:20:42;;;;;;;3.42;1.10;;;18.90;49.50;;;;;;5036417;28;20097;-64
2023/03/23 12:23:27;;;;;;;6.70;1.50;;;19.00;49.50;;;;;;5039865;28;20029;-63
2023/03/23 12:26:12;;;;;;;3.55;1.48;;;19.10;49.50;;;;;;5041117;28;20025;-63
2023/03/23 12:28:37;;;;;;;2.40;1.10;;;19.20;48.40;;;;;;5034871;28;20626;-62
2023/03/23 12:31:27;;;;;;;3.38;1.48;;;19.30;48.40;;;;;;5039823;28;20038;-62
2023/03/23 12:34:17;;;;;;;2.35;1.27;;;19.30;47.90;;;;;;5043703;28;20070;-62
2023/03/23 12:36:58;;;;;;;2.10;1.38;;;19.40;48.20;;;;;;5057054;28;20067;-63
2023/03/23 12:39:37;;;;;;;2.85;1.40;;;19.40;47.40;;;;;;5056326;28;20471;-62
2023/03/23 12:42:38;;;;;;;1.60;1.20;;;19.40;47.40;;;;;;5056978;28;20021;-63
2023/03/23 12:45:03;;;;;;;2.92;1.40;;;19.40;47.40;;;;;;5062183;28;20030;-62
2023/03/23 12:47:53;;;;;;;2.78;1.50;;;19.40;47.70;;;;;;5058598;28;20044;-64
2023/03/23 12:50:48;;;;;;;4.18;2.03;;;19.40;47.00;;;;;;5045606;28;20056;-62
2023/03/23 12:53:23;;;;;;;3.63;1.60;;;19.40;46.90;;;;;;5058137;28;20021;-62
2023/03/23 12:56:10;;;;;;;3.65;2.17;;;19.40;46.80;;;;;;5064332;28;20041;-63
2023/03/23 12:58:42;;;;;;;2.72;2.00;;;19.50;47.10;;;;;;5059905;28;20074;-62
2023/03/23 13:01:14;;;;;;;2.58;1.70;;;19.50;46.20;;;;;;5064060;28;20030;-63
2023/03/23 13:03:47;;;;;;;2.05;1.55;;;19.50;46.30;;;;;;5057667;28;20064;-64